sensor_id;sensor_type;location;lat;lon;timestamp;P1;durP1;ratioP1;P2;durP2;ratioP2
13230;SDS011;6681;53.254;10.398;2023-01-09T00:02:08;3.33;;;2.30;;
13230;SDS011;6681;53.254;10.398;2023-01-09T00:04:34;3.47;;;2.93;;
13230;SDS011;6681;53.254;10.398;2023-01-09T00:07:00;2.60;;;2.40;;
13230;SDS011;6681;53.254;10.398;2023-01-09T00:09:25;3.43;;;2.67;;
13230;SDS011;6681;53.254;10.398;2023-01-09T00:11:51;3.23;;;2.00;;
13230;SDS011;6681;53.254;10.398;2023-01-09T00:14:18;3.70;;;3.33;;
13230;SDS011;6681;53.254;10.398;2023-01-09T00:16:44;4.13;;;2.90;;
13230;SDS011;6681;53.254;10.398;2023-01-09T00:19:10;3.17;;;2.87;;
13230;SDS011;6681;53.254;10.398;2023-01-09T00:21:36;3.07;;;2.80;;
13230;SDS011;6681;53.254;10.398;2023-01-09T00:24:02;3.03;;;2.70;;
13230;SDS011;6681;53.254;10.398;2023-01-09T00:26:28;4.67;;;3.07;;
13230;SDS011;6681;53.254;10.398;2023-01-09T00:28:54;3.00;;;2.80;;
13230;SDS011;6681;53.254;10.398;2023-01-09T00:31:20;3.27;;;2.03;;
13230;SDS011;6681;53.254;10.398;2023-01-09T00:36:24;3.60;;;2.67;;
13230;SDS011;6681;53.254;10.398;2023-01-09T00:38:51;2.70;;;2.50;;
13230;SDS011;6681;53.254;10.398;2023-01-09T00:41:26;3.73;;;2.50;;
13230;SDS011;6681;53.254;10.398;2023-01-09T00:44:00;2.60;;;2.40;;
13230;SDS011;6681;53.254;10.398;2023-01-09T00:46:30;3.23;;;2.93;;
13230;SDS011;6681;53.254;10.398;2023-01-09T00:48:58;3.97;;;2.53;;
13230;SDS011;6681;53.254;10.398;2023-01-09T00:51:28;2.90;;;2.33;;
13230;SDS011;6681;53.254;10.398;2023-01-09T00:53:54;5.60;;;2.87;;
13230;SDS011;6681;53.254;10.398;2023-01-09T00:56:20;3.33;;;2.20;;
13230;SDS011;6681;53.254;10.398;2023-01-09T00:58:47;3.20;;;2.80;;
13230;SDS011;6681;53.254;10.398;2023-01-09T01:01:13;3.13;;;2.73;;
13230;SDS011;6681;53.254;10.398;2023-01-09T01:03:39;7.23;;;2.87;;
13230;SDS011;6681;53.254;10.398;2023-01-09T01:06:05;2.80;;;2.60;;
13230;SDS011;6681;53.254;10.398;2023-01-09T01:08:49;4.60;;;2.70;;
13230;SDS011;6681;53.254;10.398;2023-01-09T01:11:15;3.27;;;2.60;;
13230;SDS011;6681;53.254;10.398;2023-01-09T01:13:41;5.10;;;2.47;;
13230;SDS011;6681;53.254;10.398;2023-01-09T01:16:07;5.40;;;3.20;;
13230;SDS011;6681;53.254;10.398;2023-01-09T01:18:35;3.60;;;2.83;;
13230;SDS011;6681;53.254;10.398;2023-01-09T01:21:05;4.83;;;3.47;;
13230;SDS011;6681;53.254;10.398;2023-01-09T01:23:32;4.50;;;3.20;;
13230;SDS011;6681;53.254;10.398;2023-01-09T01:26:02;4.43;;;3.67;;
13230;SDS011;6681;53.254;10.398;2023-01-09T01:28:29;4.50;;;4.10;;
13230;SDS011;6681;53.254;10.398;2023-01-09T01:30:55;4.30;;;3.47;;
13230;SDS011;6681;53.254;10.398;2023-01-09T01:33:20;6.23;;;4.30;;
13230;SDS011;6681;53.254;10.398;2023-01-09T01:35:46;4.03;;;3.60;;
13230;SDS011;6681;53.254;10.398;2023-01-09T01:38:12;5.57;;;4.13;;
13230;SDS011;6681;53.254;10.398;2023-01-09T01:40:37;5.03;;;3.30;;
13230;SDS011;6681;53.254;10.398;2023-01-09T01:43:04;3.77;;;3.47;;
13230;SDS011;6681;53.254;10.398;2023-01-09T01:45:30;4.77;;;4.10;;
13230;SDS011;6681;53.254;10.398;2023-01-09T01:50:57;10.67;;;4.83;;
13230;SDS011;6681;53.254;10.398;2023-01-09T01:53:34;4.70;;;4.27;;
13230;SDS011;6681;53.254;10.398;2023-01-09T01:56:25;4.90;;;4.43;;
13230;SDS011;6681;53.254;10.398;2023-01-09T01:58:55;4.70;;;3.73;;
13230;SDS011;6681;53.254;10.398;2023-01-09T02:01:25;5.70;;;5.17;;
13230;SDS011;6681;53.254;10.398;2023-01-09T02:03:52;5.27;;;4.33;;
13230;SDS011;6681;53.254;10.398;2023-01-09T02:06:21;5.90;;;4.30;;
13230;SDS011;6681;53.254;10.398;2023-01-09T02:08:47;4.53;;;4.13;;
13230;SDS011;6681;53.254;10.398;2023-01-09T02:11:13;11.60;;;5.20;;
13230;SDS011;6681;53.254;10.398;2023-01-09T02:13:41;5.17;;;4.53;;
13230;SDS011;6681;53.254;10.398;2023-01-09T02:22:29;4.60;;;4.07;;
13230;SDS011;6681;53.254;10.398;2023-01-09T02:33:19;5.87;;;3.80;;
13230;SDS011;6681;53.254;10.398;2023-01-09T02:35:59;4.83;;;4.30;;
13230;SDS011;6681;53.254;10.398;2023-01-09T02:38:46;4.23;;;3.67;;
13230;SDS011;6681;53.254;10.398;2023-01-09T02:44:13;5.27;;;4.07;;
13230;SDS011;6681;53.254;10.398;2023-01-09T02:46:46;4.27;;;2.97;;
13230;SDS011;6681;53.254;10.398;2023-01-09T02:49:23;3.13;;;2.93;;
13230;SDS011;6681;53.254;10.398;2023-01-09T02:54:25;4.50;;;3.57;;
13230;SDS011;6681;53.254;10.398;2023-01-09T02:57:10;5.30;;;3.00;;
13230;SDS011;6681;53.254;10.398;2023-01-09T03:03:09;3.50;;;2.90;;
13230;SDS011;6681;53.254;10.398;2023-01-09T03:05:42;3.50;;;2.97;;
13230;SDS011;6681;53.254;10.398;2023-01-09T03:08:18;3.47;;;2.77;;
13230;SDS011;6681;53.254;10.398;2023-01-09T03:10:55;3.00;;;2.70;;
13230;SDS011;6681;53.254;10.398;2023-01-09T03:13:25;3.30;;;3.00;;
13230;SDS011;6681;53.254;10.398;2023-01-09T03:15:56;5.00;;;2.87;;
13230;SDS011;6681;53.254;10.398;2023-01-09T03:18:24;3.80;;;3.37;;
13230;SDS011;6681;53.254;10.398;2023-01-09T03:20:53;4.83;;;3.40;;
13230;SDS011;6681;53.254;10.398;2023-01-09T03:23:19;4.60;;;3.10;;
13230;SDS011;6681;53.254;10.398;2023-01-09T03:25:45;6.07;;;3.83;;
13230;SDS011;6681;53.254;10.398;2023-01-09T03:28:24;3.97;;;3.63;;
13230;SDS011;6681;53.254;10.398;2023-01-09T03:30:52;4.90;;;2.97;;
13230;SDS011;6681;53.254;10.398;2023-01-09T03:33:17;3.17;;;2.87;;
13230;SDS011;6681;53.254;10.398;2023-01-09T03:35:43;4.10;;;3.13;;
13230;SDS011;6681;53.254;10.398;2023-01-09T03:38:09;3.27;;;2.97;;
13230;SDS011;6681;53.254;10.398;2023-01-09T03:40:35;5.47;;;2.87;;
13230;SDS011;6681;53.254;10.398;2023-01-09T03:43:01;4.37;;;2.67;;
13230;SDS011;6681;53.254;10.398;2023-01-09T03:45:26;3.33;;;3.03;;
13230;SDS011;6681;53.254;10.398;2023-01-09T03:47:52;3.97;;;2.70;;
13230;SDS011;6681;53.254;10.398;2023-01-09T03:50:18;3.40;;;2.63;;
13230;SDS011;6681;53.254;10.398;2023-01-09T03:52:43;4.37;;;2.67;;
13230;SDS011;6681;53.254;10.398;2023-01-09T03:55:09;3.13;;;2.67;;
13230;SDS011;6681;53.254;10.398;2023-01-09T03:57:35;3.90;;;2.67;;
13230;SDS011;6681;53.254;10.398;2023-01-09T04:00:00;3.03;;;2.40;;
13230;SDS011;6681;53.254;10.398;2023-01-09T04:02:26;4.07;;;2.77;;
13230;SDS011;6681;53.254;10.398;2023-01-09T04:04:52;2.30;;;2.13;;
13230;SDS011;6681;53.254;10.398;2023-01-09T04:07:17;2.70;;;1.93;;
13230;SDS011;6681;53.254;10.398;2023-01-09T04:09:43;2.10;;;1.80;;
13230;SDS011;6681;53.254;10.398;2023-01-09T04:12:09;2.97;;;2.17;;
13230;SDS011;6681;53.254;10.398;2023-01-09T04:14:34;3.73;;;2.37;;
13230;SDS011;6681;53.254;10.398;2023-01-09T04:17:00;3.50;;;2.40;;
13230;SDS011;6681;53.254;10.398;2023-01-09T04:19:25;4.33;;;1.90;;
13230;SDS011;6681;53.254;10.398;2023-01-09T04:21:51;4.70;;;1.80;;
13230;SDS011;6681;53.254;10.398;2023-01-09T04:24:17;1.73;;;1.40;;
13230;SDS011;6681;53.254;10.398;2023-01-09T04:26:45;1.83;;;1.73;;
13230;SDS011;6681;53.254;10.398;2023-01-09T04:29:11;6.53;;;1.53;;
13230;SDS011;6681;53.254;10.398;2023-01-09T04:31:36;1.63;;;1.33;;
13230;SDS011;6681;53.254;10.398;2023-01-09T04:34:02;4.07;;;1.60;;
13230;SDS011;6681;53.254;10.398;2023-01-09T04:36:27;4.43;;;1.30;;
13230;SDS011;6681;53.254;10.398;2023-01-09T04:38:53;3.30;;;1.33;;
13230;SDS011;6681;53.254;10.398;2023-01-09T04:41:19;1.90;;;1.13;;
13230;SDS011;6681;53.254;10.398;2023-01-09T04:44:04;1.77;;;1.17;;
13230;SDS011;6681;53.254;10.398;2023-01-09T04:46:33;2.10;;;1.00;;
13230;SDS011;6681;53.254;10.398;2023-01-09T04:48:58;1.13;;;1.00;;
13230;SDS011;6681;53.254;10.398;2023-01-09T04:51:24;1.20;;;1.10;;
13230;SDS011;6681;53.254;10.398;2023-01-09T04:53:49;1.00;;;0.70;;
13230;SDS011;6681;53.254;10.398;2023-01-09T04:56:15;0.80;;;0.80;;
13230;SDS011;6681;53.254;10.398;2023-01-09T04:58:40;0.80;;;0.80;;
13230;SDS011;6681;53.254;10.398;2023-01-09T05:01:06;1.77;;;1.67;;
13230;SDS011;6681;53.254;10.398;2023-01-09T05:03:32;1.03;;;0.80;;
13230;SDS011;6681;53.254;10.398;2023-01-09T05:05:57;0.40;;;0.40;;
13230;SDS011;6681;53.254;10.398;2023-01-09T05:08:23;0.60;;;0.60;;
13230;SDS011;6681;53.254;10.398;2023-01-09T05:10:48;0.93;;;0.67;;
13230;SDS011;6681;53.254;10.398;2023-01-09T05:13:14;1.27;;;0.50;;
13230;SDS011;6681;53.254;10.398;2023-01-09T05:15:39;2.33;;;0.53;;
13230;SDS011;6681;53.254;10.398;2023-01-09T05:18:05;0.57;;;0.57;;
13230;SDS011;6681;53.254;10.398;2023-01-09T05:20:31;0.50;;;0.50;;
13230;SDS011;6681;53.254;10.398;2023-01-09T05:22:56;1.03;;;0.50;;
13230;SDS011;6681;53.254;10.398;2023-01-09T05:25:22;0.60;;;0.60;;
13230;SDS011;6681;53.254;10.398;2023-01-09T05:27:47;0.40;;;0.40;;
13230;SDS011;6681;53.254;10.398;2023-01-09T05:30:13;1.33;;;0.70;;
13230;SDS011;6681;53.254;10.398;2023-01-09T05:32:39;2.43;;;0.90;;
13230;SDS011;6681;53.254;10.398;2023-01-09T05:35:04;2.47;;;1.00;;
13230;SDS011;6681;53.254;10.398;2023-01-09T05:37:30;3.33;;;1.10;;
13230;SDS011;6681;53.254;10.398;2023-01-09T05:39:56;1.20;;;0.90;;
13230;SDS011;6681;53.254;10.398;2023-01-09T05:42:21;0.70;;;0.70;;
13230;SDS011;6681;53.254;10.398;2023-01-09T05:44:47;0.93;;;0.90;;
13230;SDS011;6681;53.254;10.398;2023-01-09T05:47:13;1.90;;;0.87;;
13230;SDS011;6681;53.254;10.398;2023-01-09T05:49:38;1.40;;;0.77;;
13230;SDS011;6681;53.254;10.398;2023-01-09T05:52:04;2.40;;;0.97;;
13230;SDS011;6681;53.254;10.398;2023-01-09T05:54:30;1.73;;;0.60;;
13230;SDS011;6681;53.254;10.398;2023-01-09T05:56:55;1.10;;;0.83;;
13230;SDS011;6681;53.254;10.398;2023-01-09T05:59:21;1.00;;;0.87;;
13230;SDS011;6681;53.254;10.398;2023-01-09T06:01:47;1.07;;;0.90;;
13230;SDS011;6681;53.254;10.398;2023-01-09T06:04:12;2.70;;;0.90;;
13230;SDS011;6681;53.254;10.398;2023-01-09T06:06:38;2.20;;;1.20;;
13230;SDS011;6681;53.254;10.398;2023-01-09T06:09:05;3.03;;;1.90;;
13230;SDS011;6681;53.254;10.398;2023-01-09T06:11:30;3.67;;;2.33;;
13230;SDS011;6681;53.254;10.398;2023-01-09T06:13:58;1.63;;;1.23;;
13230;SDS011;6681;53.254;10.398;2023-01-09T06:16:23;2.07;;;1.50;;
13230;SDS011;6681;53.254;10.398;2023-01-09T06:18:49;1.60;;;1.03;;
13230;SDS011;6681;53.254;10.398;2023-01-09T06:21:15;1.40;;;1.10;;
13230;SDS011;6681;53.254;10.398;2023-01-09T06:23:41;1.20;;;1.10;;
13230;SDS011;6681;53.254;10.398;2023-01-09T06:26:06;0.97;;;0.97;;
13230;SDS011;6681;53.254;10.398;2023-01-09T06:28:32;1.27;;;1.17;;
13230;SDS011;6681;53.254;10.398;2023-01-09T06:30:57;1.80;;;1.60;;
13230;SDS011;6681;53.254;10.398;2023-01-09T06:33:23;1.40;;;1.30;;
13230;SDS011;6681;53.254;10.398;2023-01-09T06:35:49;2.47;;;0.90;;
13230;SDS011;6681;53.254;10.398;2023-01-09T06:38:14;1.43;;;1.33;;
13230;SDS011;6681;53.254;10.398;2023-01-09T06:40:40;3.47;;;1.70;;
13230;SDS011;6681;53.254;10.398;2023-01-09T06:43:06;1.53;;;1.43;;
13230;SDS011;6681;53.254;10.398;2023-01-09T06:45:31;4.13;;;1.43;;
13230;SDS011;6681;53.254;10.398;2023-01-09T06:47:57;1.30;;;1.13;;
13230;SDS011;6681;53.254;10.398;2023-01-09T06:50:23;1.47;;;1.10;;
13230;SDS011;6681;53.254;10.398;2023-01-09T06:52:49;2.07;;;1.53;;
13230;SDS011;6681;53.254;10.398;2023-01-09T06:55:14;2.40;;;2.20;;
13230;SDS011;6681;53.254;10.398;2023-01-09T06:57:41;1.70;;;1.60;;
13230;SDS011;6681;53.254;10.398;2023-01-09T07:00:07;1.73;;;1.50;;
13230;SDS011;6681;53.254;10.398;2023-01-09T07:02:33;2.77;;;2.23;;
13230;SDS011;6681;53.254;10.398;2023-01-09T07:04:59;2.70;;;2.50;;
13230;SDS011;6681;53.254;10.398;2023-01-09T07:07:24;3.67;;;2.00;;
13230;SDS011;6681;53.254;10.398;2023-01-09T07:09:50;2.30;;;2.10;;
13230;SDS011;6681;53.254;10.398;2023-01-09T07:12:16;4.83;;;3.00;;
13230;SDS011;6681;53.254;10.398;2023-01-09T07:14:42;2.53;;;2.30;;
13230;SDS011;6681;53.254;10.398;2023-01-09T07:17:08;2.53;;;1.97;;
13230;SDS011;6681;53.254;10.398;2023-01-09T07:19:37;1.93;;;1.80;;
13230;SDS011;6681;53.254;10.398;2023-01-09T07:22:03;1.83;;;1.50;;
13230;SDS011;6681;53.254;10.398;2023-01-09T07:24:28;1.33;;;1.23;;
13230;SDS011;6681;53.254;10.398;2023-01-09T07:26:54;1.67;;;1.57;;
13230;SDS011;6681;53.254;10.398;2023-01-09T07:29:20;1.43;;;1.33;;
13230;SDS011;6681;53.254;10.398;2023-01-09T07:31:45;1.40;;;1.30;;
13230;SDS011;6681;53.254;10.398;2023-01-09T07:34:11;2.37;;;1.30;;
13230;SDS011;6681;53.254;10.398;2023-01-09T07:36:37;2.00;;;1.50;;
13230;SDS011;6681;53.254;10.398;2023-01-09T07:39:02;2.00;;;1.30;;
13230;SDS011;6681;53.254;10.398;2023-01-09T07:41:28;2.33;;;1.43;;
13230;SDS011;6681;53.254;10.398;2023-01-09T07:43:55;3.23;;;2.00;;
13230;SDS011;6681;53.254;10.398;2023-01-09T07:46:21;1.80;;;1.10;;
13230;SDS011;6681;53.254;10.398;2023-01-09T07:48:47;3.43;;;1.53;;
13230;SDS011;6681;53.254;10.398;2023-01-09T07:51:12;4.70;;;1.40;;
13230;SDS011;6681;53.254;10.398;2023-01-09T07:53:38;2.20;;;2.00;;
13230;SDS011;6681;53.254;10.398;2023-01-09T07:56:04;4.03;;;2.30;;
13230;SDS011;6681;53.254;10.398;2023-01-09T07:58:30;2.43;;;2.30;;
13230;SDS011;6681;53.254;10.398;2023-01-09T08:00:55;3.60;;;1.90;;
13230;SDS011;6681;53.254;10.398;2023-01-09T08:03:21;2.63;;;2.10;;
13230;SDS011;6681;53.254;10.398;2023-01-09T08:05:47;2.70;;;1.80;;
13230;SDS011;6681;53.254;10.398;2023-01-09T08:08:12;2.00;;;1.90;;
13230;SDS011;6681;53.254;10.398;2023-01-09T08:10:39;2.50;;;2.30;;
13230;SDS011;6681;53.254;10.398;2023-01-09T08:13:04;3.80;;;2.40;;
13230;SDS011;6681;53.254;10.398;2023-01-09T08:15:30;2.97;;;2.03;;
13230;SDS011;6681;53.254;10.398;2023-01-09T08:17:57;2.87;;;2.37;;
13230;SDS011;6681;53.254;10.398;2023-01-09T08:20:23;2.20;;;2.00;;
13230;SDS011;6681;53.254;10.398;2023-01-09T08:22:48;3.93;;;2.43;;
13230;SDS011;6681;53.254;10.398;2023-01-09T08:25:14;3.80;;;2.50;;
13230;SDS011;6681;53.254;10.398;2023-01-09T08:27:41;3.97;;;2.67;;
13230;SDS011;6681;53.254;10.398;2023-01-09T08:30:07;5.73;;;2.77;;
13230;SDS011;6681;53.254;10.398;2023-01-09T08:32:34;4.77;;;3.50;;
13230;SDS011;6681;53.254;10.398;2023-01-09T08:35:00;2.73;;;2.37;;
13230;SDS011;6681;53.254;10.398;2023-01-09T08:37:25;7.63;;;3.03;;
13230;SDS011;6681;53.254;10.398;2023-01-09T08:39:51;5.73;;;3.83;;
13230;SDS011;6681;53.254;10.398;2023-01-09T08:42:17;3.40;;;2.93;;
13230;SDS011;6681;53.254;10.398;2023-01-09T08:45:01;4.03;;;3.60;;
13230;SDS011;6681;53.254;10.398;2023-01-09T08:47:45;4.93;;;3.70;;
13230;SDS011;6681;53.254;10.398;2023-01-09T08:50:11;6.80;;;4.03;;
13230;SDS011;6681;53.254;10.398;2023-01-09T08:52:37;4.70;;;3.37;;
13230;SDS011;6681;53.254;10.398;2023-01-09T08:55:03;6.80;;;4.50;;
13230;SDS011;6681;53.254;10.398;2023-01-09T08:57:28;5.20;;;3.60;;
13230;SDS011;6681;53.254;10.398;2023-01-09T08:59:54;5.23;;;4.73;;
13230;SDS011;6681;53.254;10.398;2023-01-09T09:02:20;9.93;;;3.90;;
13230;SDS011;6681;53.254;10.398;2023-01-09T09:04:45;6.43;;;4.00;;
13230;SDS011;6681;53.254;10.398;2023-01-09T09:07:12;10.03;;;4.70;;
13230;SDS011;6681;53.254;10.398;2023-01-09T09:09:38;7.57;;;4.63;;
13230;SDS011;6681;53.254;10.398;2023-01-09T09:12:04;7.63;;;3.83;;
13230;SDS011;6681;53.254;10.398;2023-01-09T09:14:30;7.60;;;5.23;;
13230;SDS011;6681;53.254;10.398;2023-01-09T09:17:14;8.80;;;5.13;;
13230;SDS011;6681;53.254;10.398;2023-01-09T09:19:39;6.80;;;4.50;;
13230;SDS011;6681;53.254;10.398;2023-01-09T09:22:06;7.73;;;4.50;;
13230;SDS011;6681;53.254;10.398;2023-01-09T09:24:32;9.43;;;5.60;;
13230;SDS011;6681;53.254;10.398;2023-01-09T09:26:57;8.30;;;4.13;;
13230;SDS011;6681;53.254;10.398;2023-01-09T09:29:23;12.67;;;4.67;;
13230;SDS011;6681;53.254;10.398;2023-01-09T09:31:48;6.63;;;4.47;;
13230;SDS011;6681;53.254;10.398;2023-01-09T09:34:14;8.23;;;5.53;;
13230;SDS011;6681;53.254;10.398;2023-01-09T09:36:40;8.27;;;4.70;;
13230;SDS011;6681;53.254;10.398;2023-01-09T09:39:05;10.77;;;4.77;;
13230;SDS011;6681;53.254;10.398;2023-01-09T09:44:38;13.37;;;5.70;;
13230;SDS011;6681;53.254;10.398;2023-01-09T09:50:25;8.70;;;5.80;;
13230;SDS011;6681;53.254;10.398;2023-01-09T09:55:42;13.13;;;5.77;;
13230;SDS011;6681;53.254;10.398;2023-01-09T10:00:46;9.17;;;5.13;;
13230;SDS011;6681;53.254;10.398;2023-01-09T10:03:23;10.00;;;5.23;;
13230;SDS011;6681;53.254;10.398;2023-01-09T10:05:57;8.87;;;5.07;;
13230;SDS011;6681;53.254;10.398;2023-01-09T10:08:37;6.23;;;5.33;;
13230;SDS011;6681;53.254;10.398;2023-01-09T10:11:03;15.17;;;6.23;;
13230;SDS011;6681;53.254;10.398;2023-01-09T10:13:32;12.63;;;6.23;;
13230;SDS011;6681;53.254;10.398;2023-01-09T10:16:26;16.03;;;6.00;;
13230;SDS011;6681;53.254;10.398;2023-01-09T10:19:19;9.97;;;6.10;;
13230;SDS011;6681;53.254;10.398;2023-01-09T10:27:23;10.43;;;5.70;;
13230;SDS011;6681;53.254;10.398;2023-01-09T10:30:06;7.90;;;5.87;;
13230;SDS011;6681;53.254;10.398;2023-01-09T10:38:37;9.33;;;6.17;;
13230;SDS011;6681;53.254;10.398;2023-01-09T10:41:08;14.33;;;6.53;;
13230;SDS011;6681;53.254;10.398;2023-01-09T10:43:41;15.83;;;6.27;;
13230;SDS011;6681;53.254;10.398;2023-01-09T10:46:17;11.83;;;6.07;;
13230;SDS011;6681;53.254;10.398;2023-01-09T10:48:48;16.27;;;5.90;;
13230;SDS011;6681;53.254;10.398;2023-01-09T10:51:20;10.20;;;6.80;;
13230;SDS011;6681;53.254;10.398;2023-01-09T10:53:55;9.87;;;6.80;;
13230;SDS011;6681;53.254;10.398;2023-01-09T10:56:25;10.90;;;6.90;;
13230;SDS011;6681;53.254;10.398;2023-01-09T10:58:56;8.53;;;6.47;;
13230;SDS011;6681;53.254;10.398;2023-01-09T11:01:32;12.87;;;6.47;;
13230;SDS011;6681;53.254;10.398;2023-01-09T11:04:04;9.70;;;6.03;;
13230;SDS011;6681;53.254;10.398;2023-01-09T11:06:48;16.20;;;5.73;;
13230;SDS011;6681;53.254;10.398;2023-01-09T11:09:16;10.97;;;5.97;;
13230;SDS011;6681;53.254;10.398;2023-01-09T11:11:43;6.53;;;5.23;;
13230;SDS011;6681;53.254;10.398;2023-01-09T11:16:58;12.73;;;5.67;;
13230;SDS011;6681;53.254;10.398;2023-01-09T11:19:27;9.10;;;4.70;;
13230;SDS011;6681;53.254;10.398;2023-01-09T11:22:06;9.37;;;5.13;;
13230;SDS011;6681;53.254;10.398;2023-01-09T11:24:41;13.00;;;5.03;;
13230;SDS011;6681;53.254;10.398;2023-01-09T11:27:23;11.87;;;5.50;;
13230;SDS011;6681;53.254;10.398;2023-01-09T11:32:33;12.27;;;4.83;;
13230;SDS011;6681;53.254;10.398;2023-01-09T11:35:03;8.00;;;4.80;;
13230;SDS011;6681;53.254;10.398;2023-01-09T11:37:30;9.37;;;4.37;;
13230;SDS011;6681;53.254;10.398;2023-01-09T11:39:58;8.20;;;4.37;;
13230;SDS011;6681;53.254;10.398;2023-01-09T11:42:25;9.27;;;3.67;;
13230;SDS011;6681;53.254;10.398;2023-01-09T11:47:42;7.90;;;4.00;;
13230;SDS011;6681;53.254;10.398;2023-01-09T11:50:18;7.50;;;4.23;;
13230;SDS011;6681;53.254;10.398;2023-01-09T11:53:02;8.10;;;4.67;;
13230;SDS011;6681;53.254;10.398;2023-01-09T11:55:31;6.87;;;3.53;;
13230;SDS011;6681;53.254;10.398;2023-01-09T11:57:57;6.47;;;4.50;;
13230;SDS011;6681;53.254;10.398;2023-01-09T12:00:30;9.60;;;4.07;;
13230;SDS011;6681;53.254;10.398;2023-01-09T12:05:54;5.13;;;2.80;;
13230;SDS011;6681;53.254;10.398;2023-01-09T12:13:48;5.33;;;3.87;;
13230;SDS011;6681;53.254;10.398;2023-01-09T12:16:30;4.23;;;3.17;;
13230;SDS011;6681;53.254;10.398;2023-01-09T12:22:15;6.13;;;3.77;;
13230;SDS011;6681;53.254;10.398;2023-01-09T12:51:38;7.10;;;3.27;;
13230;SDS011;6681;53.254;10.398;2023-01-09T13:03:03;7.57;;;4.23;;
13230;SDS011;6681;53.254;10.398;2023-01-09T13:05:42;7.17;;;3.57;;
13230;SDS011;6681;53.254;10.398;2023-01-09T13:11:33;6.00;;;3.63;;
13230;SDS011;6681;53.254;10.398;2023-01-09T13:16:36;5.63;;;3.53;;
13230;SDS011;6681;53.254;10.398;2023-01-09T13:19:13;4.67;;;3.27;;
13230;SDS011;6681;53.254;10.398;2023-01-09T13:21:44;7.03;;;2.73;;
13230;SDS011;6681;53.254;10.398;2023-01-09T13:24:18;4.77;;;3.10;;
13230;SDS011;6681;53.254;10.398;2023-01-09T13:27:02;8.83;;;3.63;;
13230;SDS011;6681;53.254;10.398;2023-01-09T13:29:37;12.60;;;5.23;;
13230;SDS011;6681;53.254;10.398;2023-01-09T13:34:52;3.87;;;2.83;;
13230;SDS011;6681;53.254;10.398;2023-01-09T13:37:22;8.57;;;3.30;;
13230;SDS011;6681;53.254;10.398;2023-01-09T13:40:00;5.63;;;3.43;;
13230;SDS011;6681;53.254;10.398;2023-01-09T13:42:30;5.63;;;3.43;;
13230;SDS011;6681;53.254;10.398;2023-01-09T13:45:07;6.73;;;2.93;;
13230;SDS011;6681;53.254;10.398;2023-01-09T13:47:45;4.10;;;2.73;;
13230;SDS011;6681;53.254;10.398;2023-01-09T13:50:22;4.27;;;3.27;;
13230;SDS011;6681;53.254;10.398;2023-01-09T13:52:50;5.03;;;3.07;;
13230;SDS011;6681;53.254;10.398;2023-01-09T14:08:16;7.33;;;3.10;;
13230;SDS011;6681;53.254;10.398;2023-01-09T14:10:46;4.20;;;2.47;;
13230;SDS011;6681;53.254;10.398;2023-01-09T14:13:28;5.50;;;3.07;;
13230;SDS011;6681;53.254;10.398;2023-01-09T14:16:16;7.63;;;3.37;;
13230;SDS011;6681;53.254;10.398;2023-01-09T14:18:51;5.93;;;2.93;;
13230;SDS011;6681;53.254;10.398;2023-01-09T14:21:42;6.87;;;2.90;;
13230;SDS011;6681;53.254;10.398;2023-01-09T14:24:10;8.27;;;4.60;;
13230;SDS011;6681;53.254;10.398;2023-01-09T14:26:47;8.97;;;3.80;;
13230;SDS011;6681;53.254;10.398;2023-01-09T14:34:49;6.43;;;4.33;;
13230;SDS011;6681;53.254;10.398;2023-01-09T14:37:21;6.53;;;4.30;;
13230;SDS011;6681;53.254;10.398;2023-01-09T14:39:48;8.37;;;3.40;;
13230;SDS011;6681;53.254;10.398;2023-01-09T14:42:16;9.03;;;4.00;;
13230;SDS011;6681;53.254;10.398;2023-01-09T14:50:16;5.50;;;3.80;;
13230;SDS011;6681;53.254;10.398;2023-01-09T14:52:56;10.03;;;4.43;;
13230;SDS011;6681;53.254;10.398;2023-01-09T14:58:21;10.87;;;6.07;;
13230;SDS011;6681;53.254;10.398;2023-01-09T15:01:16;12.13;;;6.57;;
13230;SDS011;6681;53.254;10.398;2023-01-09T15:03:50;6.77;;;3.37;;
13230;SDS011;6681;53.254;10.398;2023-01-09T15:06:23;7.77;;;5.53;;
13230;SDS011;6681;53.254;10.398;2023-01-09T15:08:54;10.00;;;6.77;;
13230;SDS011;6681;53.254;10.398;2023-01-09T15:11:23;7.00;;;4.67;;
13230;SDS011;6681;53.254;10.398;2023-01-09T15:13:50;7.17;;;4.33;;
13230;SDS011;6681;53.254;10.398;2023-01-09T15:16:18;7.10;;;5.00;;
13230;SDS011;6681;53.254;10.398;2023-01-09T15:18:47;13.47;;;5.60;;
13230;SDS011;6681;53.254;10.398;2023-01-09T15:21:27;5.17;;;4.67;;
13230;SDS011;6681;53.254;10.398;2023-01-09T15:24:12;6.50;;;4.53;;
13230;SDS011;6681;53.254;10.398;2023-01-09T15:26:55;7.87;;;4.03;;
13230;SDS011;6681;53.254;10.398;2023-01-09T15:29:22;9.40;;;3.93;;
13230;SDS011;6681;53.254;10.398;2023-01-09T15:31:51;6.27;;;4.20;;
13230;SDS011;6681;53.254;10.398;2023-01-09T15:34:28;4.60;;;3.87;;
13230;SDS011;6681;53.254;10.398;2023-01-09T15:36:54;12.77;;;5.87;;
13230;SDS011;6681;53.254;10.398;2023-01-09T15:39:21;11.17;;;6.27;;
13230;SDS011;6681;53.254;10.398;2023-01-09T15:41:55;4.30;;;3.90;;
13230;SDS011;6681;53.254;10.398;2023-01-09T15:44:40;6.13;;;4.90;;
13230;SDS011;6681;53.254;10.398;2023-01-09T15:47:11;13.50;;;4.43;;
13230;SDS011;6681;53.254;10.398;2023-01-09T15:49:40;10.37;;;5.60;;
13230;SDS011;6681;53.254;10.398;2023-01-09T15:52:06;6.87;;;4.87;;
13230;SDS011;6681;53.254;10.398;2023-01-09T15:54:39;16.17;;;4.80;;
13230;SDS011;6681;53.254;10.398;2023-01-09T15:57:26;10.43;;;5.10;;
13230;SDS011;6681;53.254;10.398;2023-01-09T15:59:56;7.17;;;5.47;;
13230;SDS011;6681;53.254;10.398;2023-01-09T16:02:57;10.77;;;6.43;;
13230;SDS011;6681;53.254;10.398;2023-01-09T16:05:42;14.57;;;6.60;;
13230;SDS011;6681;53.254;10.398;2023-01-09T16:08:18;12.63;;;6.33;;
13230;SDS011;6681;53.254;10.398;2023-01-09T16:10:50;10.93;;;7.30;;
13230;SDS011;6681;53.254;10.398;2023-01-09T16:13:19;10.93;;;6.33;;
13230;SDS011;6681;53.254;10.398;2023-01-09T16:15:46;6.80;;;5.70;;
13230;SDS011;6681;53.254;10.398;2023-01-09T16:18:27;9.67;;;5.47;;
13230;SDS011;6681;53.254;10.398;2023-01-09T16:23:50;10.77;;;4.97;;
13230;SDS011;6681;53.254;10.398;2023-01-09T16:26:19;5.87;;;5.20;;
13230;SDS011;6681;53.254;10.398;2023-01-09T16:28:47;5.37;;;4.63;;
13230;SDS011;6681;53.254;10.398;2023-01-09T16:31:18;3.73;;;3.17;;
13230;SDS011;6681;53.254;10.398;2023-01-09T16:33:44;8.07;;;4.93;;
13230;SDS011;6681;53.254;10.398;2023-01-09T16:36:13;5.93;;;4.83;;
13230;SDS011;6681;53.254;10.398;2023-01-09T16:38:41;8.17;;;5.47;;
13230;SDS011;6681;53.254;10.398;2023-01-09T16:41:12;4.37;;;3.97;;
13230;SDS011;6681;53.254;10.398;2023-01-09T16:43:58;6.07;;;4.80;;
13230;SDS011;6681;53.254;10.398;2023-01-09T16:46:24;6.47;;;4.40;;
13230;SDS011;6681;53.254;10.398;2023-01-09T16:48:50;4.83;;;3.37;;
13230;SDS011;6681;53.254;10.398;2023-01-09T16:51:18;5.50;;;5.00;;
13230;SDS011;6681;53.254;10.398;2023-01-09T16:53:46;5.43;;;4.80;;
13230;SDS011;6681;53.254;10.398;2023-01-09T16:56:22;8.93;;;3.97;;
13230;SDS011;6681;53.254;10.398;2023-01-09T16:58:50;6.37;;;4.30;;
13230;SDS011;6681;53.254;10.398;2023-01-09T17:01:19;5.73;;;4.77;;
13230;SDS011;6681;53.254;10.398;2023-01-09T17:03:45;4.43;;;4.03;;
13230;SDS011;6681;53.254;10.398;2023-01-09T17:06:14;7.40;;;4.27;;
13230;SDS011;6681;53.254;10.398;2023-01-09T17:08:47;5.77;;;3.63;;
13230;SDS011;6681;53.254;10.398;2023-01-09T17:11:22;8.20;;;5.00;;
13230;SDS011;6681;53.254;10.398;2023-01-09T17:13:52;4.40;;;4.00;;
13230;SDS011;6681;53.254;10.398;2023-01-09T17:16:17;5.30;;;3.37;;
13230;SDS011;6681;53.254;10.398;2023-01-09T17:18:43;6.03;;;4.43;;
13230;SDS011;6681;53.254;10.398;2023-01-09T17:21:19;9.13;;;4.17;;
13230;SDS011;6681;53.254;10.398;2023-01-09T17:23:50;4.67;;;3.27;;
13230;SDS011;6681;53.254;10.398;2023-01-09T17:26:36;5.13;;;4.17;;